sensor_id;sensor_type;location;lat;lon;timestamp;P1;durP1;ratioP1;P2;durP2;ratioP2
8702;SDS011;9002;42.708;23.186;2024-02-21T00:04:47;5.53;;;3.50;;
8702;SDS011;9002;42.708;23.186;2024-02-21T00:09:40;6.63;;;4.20;;
8702;SDS011;9002;42.708;23.186;2024-02-21T00:12:08;7.40;;;4.85;;
8702;SDS011;9002;42.708;23.186;2024-02-21T00:14:36;6.75;;;4.18;;
8702;SDS011;9002;42.708;23.186;2024-02-21T00:17:03;6.55;;;3.92;;
8702;SDS011;9002;42.708;23.186;2024-02-21T00:21:57;6.45;;;4.22;;
8702;SDS011;9002;42.708;23.186;2024-02-21T00:26:51;5.93;;;4.22;;
8702;SDS011;9002;42.708;23.186;2024-02-21T00:29:20;6.30;;;4.57;;
8702;SDS011;9002;42.708;23.186;2024-02-21T00:34:17;6.43;;;4.28;;
8702;SDS011;9002;42.708;23.186;2024-02-21T00:39:11;9.50;;;5.53;;
8702;SDS011;9002;42.708;23.186;2024-02-21T00:44:05;5.95;;;4.13;;
8702;SDS011;9002;42.708;23.186;2024-02-21T00:49:00;7.07;;;4.20;;
8702;SDS011;9002;42.708;23.186;2024-02-21T00:51:27;7.60;;;4.95;;
8702;SDS011;9002;42.708;23.186;2024-02-21T00:53:54;7.10;;;4.20;;
8702;SDS011;9002;42.708;23.186;2024-02-21T00:58:47;5.68;;;3.53;;
8702;SDS011;9002;42.708;23.186;2024-02-21T01:01:20;6.50;;;4.38;;
8702;SDS011;9002;42.708;23.186;2024-02-21T01:03:47;6.72;;;4.32;;
8702;SDS011;9002;42.708;23.186;2024-02-21T01:08:42;5.57;;;3.95;;
8702;SDS011;9002;42.708;23.186;2024-02-21T01:11:09;5.72;;;4.68;;
8702;SDS011;9002;42.708;23.186;2024-02-21T01:13:36;6.38;;;4.25;;
8702;SDS011;9002;42.708;23.186;2024-02-21T01:16:03;5.97;;;4.15;;
8702;SDS011;9002;42.708;23.186;2024-02-21T01:18:31;5.88;;;4.28;;
8702;SDS011;9002;42.708;23.186;2024-02-21T01:23:28;4.82;;;3.75;;
8702;SDS011;9002;42.708;23.186;2024-02-21T01:25:55;5.05;;;4.38;;
8702;SDS011;9002;42.708;23.186;2024-02-21T01:28:22;8.55;;;4.18;;
8702;SDS011;9002;42.708;23.186;2024-02-21T01:33:16;6.40;;;3.58;;
8702;SDS011;9002;42.708;23.186;2024-02-21T01:35:44;6.72;;;4.60;;
8702;SDS011;9002;42.708;23.186;2024-02-21T01:38:12;7.53;;;4.45;;
8702;SDS011;9002;42.708;23.186;2024-02-21T01:40:41;5.88;;;4.68;;
8702;SDS011;9002;42.708;23.186;2024-02-21T01:43:15;5.07;;;4.20;;
8702;SDS011;9002;42.708;23.186;2024-02-21T01:45:43;6.47;;;4.63;;
8702;SDS011;9002;42.708;23.186;2024-02-21T01:48:11;6.30;;;4.43;;
8702;SDS011;9002;42.708;23.186;2024-02-21T01:53:05;6.18;;;3.72;;
8702;SDS011;9002;42.708;23.186;2024-02-21T01:55:33;9.07;;;5.10;;
8702;SDS011;9002;42.708;23.186;2024-02-21T01:58:02;6.93;;;4.63;;
8702;SDS011;9002;42.708;23.186;2024-02-21T02:00:30;8.32;;;4.70;;
8702;SDS011;9002;42.708;23.186;2024-02-21T02:02:58;7.20;;;5.20;;
8702;SDS011;9002;42.708;23.186;2024-02-21T02:07:53;7.53;;;5.05;;
8702;SDS011;9002;42.708;23.186;2024-02-21T02:10:19;9.32;;;5.55;;
8702;SDS011;9002;42.708;23.186;2024-02-21T02:15:14;7.22;;;4.28;;
8702;SDS011;9002;42.708;23.186;2024-02-21T02:17:41;7.95;;;5.82;;
8702;SDS011;9002;42.708;23.186;2024-02-21T02:20:09;10.35;;;6.32;;
8702;SDS011;9002;42.708;23.186;2024-02-21T02:22:36;7.03;;;4.95;;
8702;SDS011;9002;42.708;23.186;2024-02-21T02:25:07;7.10;;;5.32;;
8702;SDS011;9002;42.708;23.186;2024-02-21T02:27:41;10.40;;;6.18;;
8702;SDS011;9002;42.708;23.186;2024-02-21T02:30:10;8.45;;;5.65;;
8702;SDS011;9002;42.708;23.186;2024-02-21T02:32:38;7.97;;;6.00;;
8702;SDS011;9002;42.708;23.186;2024-02-21T02:35:05;8.38;;;5.53;;
8702;SDS011;9002;42.708;23.186;2024-02-21T02:37:32;9.48;;;6.03;;
8702;SDS011;9002;42.708;23.186;2024-02-21T02:42:27;9.25;;;5.55;;
8702;SDS011;9002;42.708;23.186;2024-02-21T02:44:54;9.52;;;6.63;;
8702;SDS011;9002;42.708;23.186;2024-02-21T02:47:22;10.43;;;5.95;;
8702;SDS011;9002;42.708;23.186;2024-02-21T02:49:49;9.48;;;6.22;;
8702;SDS011;9002;42.708;23.186;2024-02-21T02:52:16;8.82;;;5.95;;
8702;SDS011;9002;42.708;23.186;2024-02-21T02:54:43;9.77;;;6.75;;
8702;SDS011;9002;42.708;23.186;2024-02-21T02:57:11;8.77;;;6.63;;
8702;SDS011;9002;42.708;23.186;2024-02-21T02:59:39;8.70;;;5.80;;
8702;SDS011;9002;42.708;23.186;2024-02-21T03:02:06;10.15;;;6.68;;
8702;SDS011;9002;42.708;23.186;2024-02-21T03:04:33;12.18;;;6.35;;
8702;SDS011;9002;42.708;23.186;2024-02-21T03:07:00;8.98;;;6.10;;
8702;SDS011;9002;42.708;23.186;2024-02-21T03:09:27;9.10;;;6.50;;
8702;SDS011;9002;42.708;23.186;2024-02-21T03:14:27;10.90;;;7.30;;
8702;SDS011;9002;42.708;23.186;2024-02-21T03:19:22;9.48;;;6.15;;
8702;SDS011;9002;42.708;23.186;2024-02-21T03:24:16;7.20;;;5.82;;
8702;SDS011;9002;42.708;23.186;2024-02-21T03:29:10;7.85;;;5.63;;
8702;SDS011;9002;42.708;23.186;2024-02-21T03:31:37;9.52;;;6.45;;
8702;SDS011;9002;42.708;23.186;2024-02-21T03:36:32;9.38;;;6.25;;
8702;SDS011;9002;42.708;23.186;2024-02-21T03:38:59;8.43;;;5.35;;
8702;SDS011;9002;42.708;23.186;2024-02-21T03:41:26;9.88;;;6.53;;
8702;SDS011;9002;42.708;23.186;2024-02-21T03:43:53;8.98;;;6.43;;
8702;SDS011;9002;42.708;23.186;2024-02-21T03:48:47;10.77;;;6.35;;
8702;SDS011;9002;42.708;23.186;2024-02-21T03:53:42;10.50;;;6.03;;
8702;SDS011;9002;42.708;23.186;2024-02-21T03:58:36;12.32;;;6.25;;
8702;SDS011;9002;42.708;23.186;2024-02-21T04:03:30;9.65;;;6.93;;
8702;SDS011;9002;42.708;23.186;2024-02-21T04:05:57;9.32;;;5.88;;
8702;SDS011;9002;42.708;23.186;2024-02-21T04:10:52;8.70;;;6.22;;
8702;SDS011;9002;42.708;23.186;2024-02-21T04:15:47;8.40;;;6.00;;
8702;SDS011;9002;42.708;23.186;2024-02-21T04:18:14;8.57;;;6.38;;
8702;SDS011;9002;42.708;23.186;2024-02-21T04:23:07;9.63;;;6.78;;
8702;SDS011;9002;42.708;23.186;2024-02-21T04:28:03;10.38;;;6.03;;
8702;SDS011;9002;42.708;23.186;2024-02-21T04:30:30;12.80;;;7.22;;
8702;SDS011;9002;42.708;23.186;2024-02-21T04:35:24;11.73;;;7.88;;
8702;SDS011;9002;42.708;23.186;2024-02-21T04:40:17;10.48;;;6.50;;
8702;SDS011;9002;42.708;23.186;2024-02-21T04:42:46;10.55;;;7.07;;
8702;SDS011;9002;42.708;23.186;2024-02-21T04:45:13;11.77;;;7.45;;
8702;SDS011;9002;42.708;23.186;2024-02-21T04:47:40;13.07;;;7.82;;
8702;SDS011;9002;42.708;23.186;2024-02-21T04:50:09;10.63;;;6.75;;
8702;SDS011;9002;42.708;23.186;2024-02-21T04:55:03;11.40;;;8.00;;
8702;SDS011;9002;42.708;23.186;2024-02-21T04:57:31;9.93;;;7.05;;
8702;SDS011;9002;42.708;23.186;2024-02-21T05:02:26;11.13;;;7.50;;
8702;SDS011;9002;42.708;23.186;2024-02-21T05:07:19;11.52;;;7.03;;
8702;SDS011;9002;42.708;23.186;2024-02-21T05:12:13;12.20;;;8.27;;
8702;SDS011;9002;42.708;23.186;2024-02-21T05:14:40;11.90;;;7.45;;
8702;SDS011;9002;42.708;23.186;2024-02-21T05:17:08;16.40;;;10.00;;
8702;SDS011;9002;42.708;23.186;2024-02-21T05:19:35;20.45;;;10.68;;
8702;SDS011;9002;42.708;23.186;2024-02-21T05:24:29;12.65;;;7.38;;
8702;SDS011;9002;42.708;23.186;2024-02-21T05:29:23;9.75;;;7.72;;
8702;SDS011;9002;42.708;23.186;2024-02-21T05:34:24;13.20;;;7.40;;
8702;SDS011;9002;42.708;23.186;2024-02-21T05:36:52;13.18;;;7.82;;
8702;SDS011;9002;42.708;23.186;2024-02-21T05:39:19;14.55;;;8.88;;
8702;SDS011;9002;42.708;23.186;2024-02-21T05:41:48;13.70;;;8.30;;
8702;SDS011;9002;42.708;23.186;2024-02-21T05:44:15;15.27;;;8.90;;
8702;SDS011;9002;42.708;23.186;2024-02-21T05:46:42;11.55;;;7.70;;
8702;SDS011;9002;42.708;23.186;2024-02-21T05:51:37;16.70;;;8.68;;
8702;SDS011;9002;42.708;23.186;2024-02-21T05:54:04;13.25;;;8.63;;
8702;SDS011;9002;42.708;23.186;2024-02-21T05:56:32;13.95;;;9.18;;
8702;SDS011;9002;42.708;23.186;2024-02-21T05:58:59;13.63;;;9.32;;
8702;SDS011;9002;42.708;23.186;2024-02-21T06:03:53;14.13;;;10.65;;
8702;SDS011;9002;42.708;23.186;2024-02-21T06:06:20;16.30;;;9.65;;
8702;SDS011;9002;42.708;23.186;2024-02-21T06:08:49;15.40;;;10.18;;
8702;SDS011;9002;42.708;23.186;2024-02-21T06:11:16;20.15;;;12.70;;
8702;SDS011;9002;42.708;23.186;2024-02-21T06:16:09;21.33;;;13.43;;
8702;SDS011;9002;42.708;23.186;2024-02-21T06:18:36;20.95;;;14.15;;
8702;SDS011;9002;42.708;23.186;2024-02-21T06:21:03;24.95;;;13.68;;
8702;SDS011;9002;42.708;23.186;2024-02-21T06:23:30;20.52;;;13.68;;
8702;SDS011;9002;42.708;23.186;2024-02-21T06:25:59;23.00;;;14.65;;
8702;SDS011;9002;42.708;23.186;2024-02-21T06:28:26;20.02;;;13.60;;
8702;SDS011;9002;42.708;23.186;2024-02-21T06:30:53;20.95;;;12.45;;
8702;SDS011;9002;42.708;23.186;2024-02-21T06:35:50;18.42;;;11.45;;
8702;SDS011;9002;42.708;23.186;2024-02-21T06:38:19;16.85;;;11.77;;
8702;SDS011;9002;42.708;23.186;2024-02-21T06:40:46;20.67;;;11.23;;
8702;SDS011;9002;42.708;23.186;2024-02-21T06:43:19;20.80;;;11.65;;
8702;SDS011;9002;42.708;23.186;2024-02-21T06:45:47;20.50;;;12.77;;
8702;SDS011;9002;42.708;23.186;2024-02-21T06:48:16;20.10;;;11.88;;
8702;SDS011;9002;42.708;23.186;2024-02-21T06:50:44;19.70;;;10.88;;
8702;SDS011;9002;42.708;23.186;2024-02-21T06:53:12;16.05;;;10.95;;
8702;SDS011;9002;42.708;23.186;2024-02-21T06:55:39;20.85;;;10.73;;
8702;SDS011;9002;42.708;23.186;2024-02-21T07:00:38;20.38;;;10.65;;
8702;SDS011;9002;42.708;23.186;2024-02-21T07:03:05;17.58;;;11.32;;
8702;SDS011;9002;42.708;23.186;2024-02-21T07:07:58;18.98;;;11.02;;
8702;SDS011;9002;42.708;23.186;2024-02-21T07:12:53;15.35;;;9.88;;
8702;SDS011;9002;42.708;23.186;2024-02-21T07:17:48;16.05;;;9.38;;
8702;SDS011;9002;42.708;23.186;2024-02-21T07:20:15;19.13;;;10.48;;
8702;SDS011;9002;42.708;23.186;2024-02-21T07:25:08;15.20;;;9.55;;
8702;SDS011;9002;42.708;23.186;2024-02-21T07:27:36;15.18;;;9.48;;
8702;SDS011;9002;42.708;23.186;2024-02-21T07:30:03;14.80;;;8.85;;
8702;SDS011;9002;42.708;23.186;2024-02-21T07:32:31;16.23;;;9.10;;
8702;SDS011;9002;42.708;23.186;2024-02-21T07:37:26;14.95;;;8.93;;
8702;SDS011;9002;42.708;23.186;2024-02-21T07:42:20;17.05;;;9.25;;
8702;SDS011;9002;42.708;23.186;2024-02-21T07:47:13;16.15;;;8.90;;
8702;SDS011;9002;42.708;23.186;2024-02-21T07:52:09;14.98;;;9.48;;
8702;SDS011;9002;42.708;23.186;2024-02-21T07:54:36;12.98;;;8.57;;
8702;SDS011;9002;42.708;23.186;2024-02-21T07:59:30;14.35;;;9.00;;
8702;SDS011;9002;42.708;23.186;2024-02-21T08:04:24;17.55;;;9.82;;
8702;SDS011;9002;42.708;23.186;2024-02-21T08:06:52;16.90;;;10.00;;
8702;SDS011;9002;42.708;23.186;2024-02-21T08:09:22;19.15;;;9.77;;
8702;SDS011;9002;42.708;23.186;2024-02-21T08:11:49;16.63;;;9.43;;
8702;SDS011;9002;42.708;23.186;2024-02-21T08:14:16;16.90;;;9.82;;
8702;SDS011;9002;42.708;23.186;2024-02-21T08:16:43;15.40;;;10.13;;
8702;SDS011;9002;42.708;23.186;2024-02-21T08:21:37;15.52;;;9.93;;
8702;SDS011;9002;42.708;23.186;2024-02-21T08:24:04;19.73;;;9.52;;
8702;SDS011;9002;42.708;23.186;2024-02-21T08:26:33;17.92;;;10.45;;
8702;SDS011;9002;42.708;23.186;2024-02-21T08:29:01;17.70;;;10.02;;
8702;SDS011;9002;42.708;23.186;2024-02-21T08:31:28;22.65;;;12.55;;
8702;SDS011;9002;42.708;23.186;2024-02-21T08:33:56;17.83;;;12.25;;
8702;SDS011;9002;42.708;23.186;2024-02-21T08:36:27;14.60;;;10.30;;
8702;SDS011;9002;42.708;23.186;2024-02-21T08:38:55;16.10;;;10.25;;
8702;SDS011;9002;42.708;23.186;2024-02-21T08:41:23;26.23;;;15.63;;
8702;SDS011;9002;42.708;23.186;2024-02-21T08:43:52;19.10;;;11.48;;
8702;SDS011;9002;42.708;23.186;2024-02-21T08:46:20;16.75;;;10.27;;
8702;SDS011;9002;42.708;23.186;2024-02-21T08:48:47;16.20;;;9.60;;
8702;SDS011;9002;42.708;23.186;2024-02-21T08:51:14;15.68;;;9.73;;
8702;SDS011;9002;42.708;23.186;2024-02-21T08:53:41;16.48;;;9.90;;
8702;SDS011;9002;42.708;23.186;2024-02-21T08:56:10;12.68;;;9.32;;
8702;SDS011;9002;42.708;23.186;2024-02-21T08:58:37;14.00;;;9.50;;
8702;SDS011;9002;42.708;23.186;2024-02-21T09:01:07;12.70;;;8.40;;
8702;SDS011;9002;42.708;23.186;2024-02-21T09:03:35;16.90;;;9.65;;
8702;SDS011;9002;42.708;23.186;2024-02-21T09:06:04;13.40;;;9.00;;
8702;SDS011;9002;42.708;23.186;2024-02-21T09:08:31;14.50;;;8.93;;
8702;SDS011;9002;42.708;23.186;2024-02-21T09:10:59;14.57;;;8.75;;
8702;SDS011;9002;42.708;23.186;2024-02-21T09:13:26;15.30;;;9.52;;
8702;SDS011;9002;42.708;23.186;2024-02-21T09:15:53;14.80;;;10.18;;
8702;SDS011;9002;42.708;23.186;2024-02-21T09:18:22;15.63;;;9.25;;
8702;SDS011;9002;42.708;23.186;2024-02-21T09:20:49;14.13;;;9.35;;
8702;SDS011;9002;42.708;23.186;2024-02-21T09:23:16;16.55;;;10.13;;
8702;SDS011;9002;42.708;23.186;2024-02-21T09:25:45;13.93;;;9.90;;
8702;SDS011;9002;42.708;23.186;2024-02-21T09:28:12;18.20;;;10.60;;
8702;SDS011;9002;42.708;23.186;2024-02-21T09:30:39;14.88;;;9.75;;
8702;SDS011;9002;42.708;23.186;2024-02-21T09:33:06;14.60;;;9.93;;
8702;SDS011;9002;42.708;23.186;2024-02-21T09:35:37;16.98;;;10.40;;
8702;SDS011;9002;42.708;23.186;2024-02-21T09:38:04;13.55;;;9.82;;
8702;SDS011;9002;42.708;23.186;2024-02-21T09:40:31;13.02;;;9.35;;
8702;SDS011;9002;42.708;23.186;2024-02-21T09:43:01;14.05;;;10.15;;
8702;SDS011;9002;42.708;23.186;2024-02-21T09:45:32;15.30;;;9.77;;
8702;SDS011;9002;42.708;23.186;2024-02-21T09:48:05;15.20;;;9.52;;
8702;SDS011;9002;42.708;23.186;2024-02-21T09:50:46;16.13;;;9.63;;
8702;SDS011;9002;42.708;23.186;2024-02-21T09:53:15;13.32;;;9.30;;
8702;SDS011;9002;42.708;23.186;2024-02-21T09:55:43;13.43;;;9.45;;
8702;SDS011;9002;42.708;23.186;2024-02-21T09:58:11;12.35;;;8.77;;
8702;SDS011;9002;42.708;23.186;2024-02-21T10:00:38;14.15;;;9.30;;
8702;SDS011;9002;42.708;23.186;2024-02-21T10:03:05;11.95;;;8.60;;
8702;SDS011;9002;42.708;23.186;2024-02-21T10:05:35;12.88;;;8.93;;
8702;SDS011;9002;42.708;23.186;2024-02-21T10:08:05;10.80;;;8.15;;
8702;SDS011;9002;42.708;23.186;2024-02-21T10:10:40;12.18;;;8.55;;
8702;SDS011;9002;42.708;23.186;2024-02-21T10:13:09;12.00;;;8.43;;
8702;SDS011;9002;42.708;23.186;2024-02-21T10:15:36;13.10;;;7.97;;
8702;SDS011;9002;42.708;23.186;2024-02-21T10:18:04;15.25;;;8.73;;
8702;SDS011;9002;42.708;23.186;2024-02-21T10:20:32;11.95;;;8.40;;
8702;SDS011;9002;42.708;23.186;2024-02-21T10:23:02;10.68;;;7.60;;
8702;SDS011;9002;42.708;23.186;2024-02-21T10:25:34;10.35;;;7.63;;
8702;SDS011;9002;42.708;23.186;2024-02-21T10:28:03;11.35;;;7.53;;
8702;SDS011;9002;42.708;23.186;2024-02-21T10:30:30;11.10;;;7.55;;
8702;SDS011;9002;42.708;23.186;2024-02-21T10:32:57;12.13;;;7.65;;
8702;SDS011;9002;42.708;23.186;2024-02-21T10:35:28;10.05;;;7.47;;
8702;SDS011;9002;42.708;23.186;2024-02-21T10:37:56;10.10;;;6.88;;
8702;SDS011;9002;42.708;23.186;2024-02-21T10:40:25;11.75;;;7.82;;
8702;SDS011;9002;42.708;23.186;2024-02-21T10:42:56;11.05;;;6.82;;
8702;SDS011;9002;42.708;23.186;2024-02-21T10:45:27;10.15;;;7.38;;
8702;SDS011;9002;42.708;23.186;2024-02-21T10:48:00;8.70;;;6.47;;
8702;SDS011;9002;42.708;23.186;2024-02-21T10:50:36;10.02;;;7.15;;
8702;SDS011;9002;42.708;23.186;2024-02-21T10:53:16;11.65;;;7.13;;
8702;SDS011;9002;42.708;23.186;2024-02-21T10:56:06;9.02;;;6.28;;
8702;SDS011;9002;42.708;23.186;2024-02-21T10:58:38;9.38;;;5.82;;
8702;SDS011;9002;42.708;23.186;2024-02-21T11:01:06;8.23;;;6.47;;
8702;SDS011;9002;42.708;23.186;2024-02-21T11:03:34;7.88;;;5.82;;
8702;SDS011;9002;42.708;23.186;2024-02-21T11:06:02;7.70;;;5.20;;
8702;SDS011;9002;42.708;23.186;2024-02-21T11:08:31;7.78;;;5.43;;
8702;SDS011;9002;42.708;23.186;2024-02-21T11:11:00;6.97;;;4.05;;
8702;SDS011;9002;42.708;23.186;2024-02-21T11:13:30;7.10;;;4.13;;
8702;SDS011;9002;42.708;23.186;2024-02-21T11:16:05;5.00;;;3.63;;
8702;SDS011;9002;42.708;23.186;2024-02-21T11:18:34;7.13;;;4.32;;
8702;SDS011;9002;42.708;23.186;2024-02-21T11:21:01;6.45;;;4.47;;
8702;SDS011;9002;42.708;23.186;2024-02-21T11:23:30;5.38;;;3.55;;
8702;SDS011;9002;42.708;23.186;2024-02-21T11:28:43;7.20;;;4.07;;
8702;SDS011;9002;42.708;23.186;2024-02-21T11:31:11;5.93;;;3.88;;
8702;SDS011;9002;42.708;23.186;2024-02-21T11:33:40;6.80;;;4.45;;
8702;SDS011;9002;42.708;23.186;2024-02-21T11:36:08;5.70;;;3.97;;
8702;SDS011;9002;42.708;23.186;2024-02-21T11:38:35;6.15;;;4.30;;
8702;SDS011;9002;42.708;23.186;2024-02-21T11:41:02;6.70;;;4.47;;
8702;SDS011;9002;42.708;23.186;2024-02-21T11:43:34;6.18;;;3.42;;
8702;SDS011;9002;42.708;23.186;2024-02-21T11:46:03;4.93;;;4.22;;
8702;SDS011;9002;42.708;23.186;2024-02-21T11:48:31;5.47;;;4.32;;
8702;SDS011;9002;42.708;23.186;2024-02-21T11:50:58;7.22;;;4.22;;
8702;SDS011;9002;42.708;23.186;2024-02-21T11:53:26;6.70;;;4.80;;
8702;SDS011;9002;42.708;23.186;2024-02-21T11:55:56;5.60;;;4.13;;
8702;SDS011;9002;42.708;23.186;2024-02-21T11:58:23;6.35;;;4.55;;
8702;SDS011;9002;42.708;23.186;2024-02-21T12:00:51;6.38;;;4.65;;
8702;SDS011;9002;42.708;23.186;2024-02-21T12:03:20;7.80;;;4.38;;
8702;SDS011;9002;42.708;23.186;2024-02-21T12:05:47;5.90;;;5.03;;
8702;SDS011;9002;42.708;23.186;2024-02-21T12:08:17;6.10;;;4.90;;
8702;SDS011;9002;42.708;23.186;2024-02-21T12:10:45;6.82;;;4.82;;
8702;SDS011;9002;42.708;23.186;2024-02-21T12:13:16;6.10;;;4.55;;
8702;SDS011;9002;42.708;23.186;2024-02-21T12:15:47;7.28;;;5.22;;
8702;SDS011;9002;42.708;23.186;2024-02-21T12:18:27;6.45;;;4.72;;
8702;SDS011;9002;42.708;23.186;2024-02-21T12:21:16;5.68;;;4.57;;
8702;SDS011;9002;42.708;23.186;2024-02-21T12:23:54;7.20;;;4.38;;
8702;SDS011;9002;42.708;23.186;2024-02-21T12:26:59;6.78;;;4.85;;
8702;SDS011;9002;42.708;23.186;2024-02-21T12:29:38;7.00;;;4.43;;
8702;SDS011;9002;42.708;23.186;2024-02-21T12:32:05;6.45;;;4.32;;
8702;SDS011;9002;42.708;23.186;2024-02-21T12:34:34;6.38;;;4.38;;
8702;SDS011;9002;42.708;23.186;2024-02-21T12:37:01;4.60;;;3.42;;
8702;SDS011;9002;42.708;23.186;2024-02-21T12:39:29;7.00;;;4.32;;
8702;SDS011;9002;42.708;23.186;2024-02-21T12:41:57;5.60;;;4.72;;
8702;SDS011;9002;42.708;23.186;2024-02-21T12:44:24;6.10;;;4.65;;
8702;SDS011;9002;42.708;23.186;2024-02-21T12:46:51;8.55;;;5.15;;
8702;SDS011;9002;42.708;23.186;2024-02-21T12:49:19;8.82;;;4.72;;
8702;SDS011;9002;42.708;23.186;2024-02-21T12:51:47;6.78;;;5.15;;
8702;SDS011;9002;42.708;23.186;2024-02-21T12:54:15;6.38;;;4.90;;
8702;SDS011;9002;42.708;23.186;2024-02-21T12:56:42;6.95;;;4.80;;
8702;SDS011;9002;42.708;23.186;2024-02-21T12:59:08;8.85;;;6.00;;
8702;SDS011;9002;42.708;23.186;2024-02-21T13:01:35;10.20;;;6.60;;
8702;SDS011;9002;42.708;23.186;2024-02-21T13:07:27;9.85;;;5.15;;
8702;SDS011;9002;42.708;23.186;2024-02-21T13:10:04;7.20;;;5.63;;
8702;SDS011;9002;42.708;23.186;2024-02-21T13:13:21;8.18;;;5.20;;
8702;SDS011;9002;42.708;23.186;2024-02-21T13:16:22;7.70;;;5.85;;
8702;SDS011;9002;42.708;23.186;2024-02-21T13:18:51;9.60;;;6.57;;
8702;SDS011;9002;42.708;23.186;2024-02-21T13:21:18;11.32;;;8.43;;
8702;SDS011;9002;42.708;23.186;2024-02-21T13:23:47;7.97;;;6.20;;
8702;SDS011;9002;42.708;23.186;2024-02-21T13:26:14;7.10;;;5.75;;
8702;SDS011;9002;42.708;23.186;2024-02-21T13:28:42;8.52;;;6.25;;
8702;SDS011;9002;42.708;23.186;2024-02-21T13:31:10;7.07;;;5.72;;
8702;SDS011;9002;42.708;23.186;2024-02-21T13:33:38;8.30;;;6.38;;
8702;SDS011;9002;42.708;23.186;2024-02-21T13:36:05;9.20;;;6.55;;
8702;SDS011;9002;42.708;23.186;2024-02-21T13:45:29;10.90;;;5.95;;
8702;SDS011;9002;42.708;23.186;2024-02-21T13:48:04;11.85;;;7.63;;
8702;SDS011;9002;42.708;23.186;2024-02-21T13:51:06;10.48;;;6.55;;
8702;SDS011;9002;42.708;23.186;2024-02-21T13:53:33;13.63;;;6.32;;
8702;SDS011;9002;42.708;23.186;2024-02-21T13:56:00;7.38;;;6.28;;
8702;SDS011;9002;42.708;23.186;2024-02-21T13:58:35;9.73;;;6.50;;
8702;SDS011;9002;42.708;23.186;2024-02-21T14:01:52;7.35;;;5.20;;
8702;SDS011;9002;42.708;23.186;2024-02-21T14:04:20;7.68;;;5.70;;
8702;SDS011;9002;42.708;23.186;2024-02-21T14:10:11;6.93;;;4.90;;
8702;SDS011;9002;42.708;23.186;2024-02-21T14:12:38;7.05;;;4.72;;
8702;SDS011;9002;42.708;23.186;2024-02-21T14:15:05;6.07;;;4.45;;
8702;SDS011;9002;42.708;23.186;2024-02-21T14:17:35;8.60;;;6.10;;
8702;SDS011;9002;42.708;23.186;2024-02-21T14:20:04;5.57;;;4.35;;
8702;SDS011;9002;42.708;23.186;2024-02-21T14:22:32;7.03;;;5.53;;
8702;SDS011;9002;42.708;23.186;2024-02-21T14:27:34;10.75;;;6.30;;
8702;SDS011;9002;42.708;23.186;2024-02-21T14:30:02;8.23;;;5.55;;
8702;SDS011;9002;42.708;23.186;2024-02-21T14:32:29;7.00;;;4.85;;
8702;SDS011;9002;42.708;23.186;2024-02-21T14:34:58;8.02;;;5.55;;
8702;SDS011;9002;42.708;23.186;2024-02-21T14:37:25;6.95;;;4.30;;
8702;SDS011;9002;42.708;23.186;2024-02-21T14:39:52;8.63;;;5.93;;
8702;SDS011;9002;42.708;23.186;2024-02-21T14:42:19;7.63;;;5.45;;
8702;SDS011;9002;42.708;23.186;2024-02-21T14:44:46;9.18;;;6.18;;
8702;SDS011;9002;42.708;23.186;2024-02-21T14:47:13;8.73;;;5.43;;
8702;SDS011;9002;42.708;23.186;2024-02-21T14:49:40;10.40;;;6.60;;
8702;SDS011;9002;42.708;23.186;2024-02-21T14:52:08;7.50;;;5.20;;
8702;SDS011;9002;42.708;23.186;2024-02-21T14:54:37;9.70;;;6.38;;
8702;SDS011;9002;42.708;23.186;2024-02-21T14:57:23;10.55;;;5.07;;
8702;SDS011;9002;42.708;23.186;2024-02-21T14:59:51;8.45;;;5.63;;
8702;SDS011;9002;42.708;23.186;2024-02-21T15:02:21;10.32;;;6.70;;
8702;SDS011;9002;42.708;23.186;2024-02-21T15:04:48;10.57;;;6.40;;
8702;SDS011;9002;42.708;23.186;2024-02-21T15:07:19;9.90;;;7.65;;
8702;SDS011;9002;42.708;23.186;2024-02-21T15:09:49;11.57;;;7.88;;
8702;SDS011;9002;42.708;23.186;2024-02-21T15:12:17;7.70;;;6.00;;
8702;SDS011;9002;42.708;23.186;2024-02-21T15:14:44;10.07;;;6.47;;
8702;SDS011;9002;42.708;23.186;2024-02-21T15:17:11;10.93;;;6.68;;
8702;SDS011;9002;42.708;23.186;2024-02-21T15:19:38;9.63;;;6.53;;
8702;SDS011;9002;42.708;23.186;2024-02-21T15:22:08;9.77;;;6.63;;
8702;SDS011;9002;42.708;23.186;2024-02-21T15:24:38;7.82;;;5.43;;
8702;SDS011;9002;42.708;23.186;2024-02-21T15:27:06;8.57;;;5.35;;
8702;SDS011;9002;42.708;23.186;2024-02-21T15:32:08;8.70;;;6.40;;
8702;SDS011;9002;42.708;23.186;2024-02-21T15:34:37;8.50;;;5.68;;
8702;SDS011;9002;42.708;23.186;2024-02-21T15:37:04;10.20;;;6.30;;
8702;SDS011;9002;42.708;23.186;2024-02-21T15:39:31;9.68;;;6.32;;
8702;SDS011;9002;42.708;23.186;2024-02-21T15:42:01;7.95;;;6.18;;
8702;SDS011;9002;42.708;23.186;2024-02-21T15:44:31;8.02;;;4.78;;
8702;SDS011;9002;42.708;23.186;2024-02-21T15:47:06;9.80;;;6.32;;
8702;SDS011;9002;42.708;23.186;2024-02-21T15:49:34;10.60;;;7.07;;
8702;SDS011;9002;42.708;23.186;2024-02-21T15:52:04;9.85;;;5.70;;
8702;SDS011;9002;42.708;23.186;2024-02-21T15:54:32;8.35;;;5.88;;
8702;SDS011;9002;42.708;23.186;2024-02-21T15:57:07;9.23;;;6.93;;
8702;SDS011;9002;42.708;23.186;2024-02-21T15:59:38;13.60;;;6.72;;
8702;SDS011;9002;42.708;23.186;2024-02-21T16:02:05;12.23;;;7.88;;
8702;SDS011;9002;42.708;23.186;2024-02-21T16:04:32;14.88;;;10.07;;
8702;SDS011;9002;42.708;23.186;2024-02-21T16:07:04;20.17;;;12.43;;
8702;SDS011;9002;42.708;23.186;2024-02-21T16:09:31;10.52;;;7.68;;
8702;SDS011;9002;42.708;23.186;2024-02-21T16:11:57;9.98;;;7.15;;
8702;SDS011;9002;42.708;23.186;2024-02-21T16:14:31;10.13;;;7.18;;
8702;SDS011;9002;42.708;23.186;2024-02-21T16:17:04;19.25;;;11.43;;
8702;SDS011;9002;42.708;23.186;2024-02-21T16:19:32;21.27;;;13.40;;
8702;SDS011;9002;42.708;23.186;2024-02-21T16:21:59;15.65;;;9.88;;
8702;SDS011;9002;42.708;23.186;2024-02-21T16:24:31;13.45;;;9.88;;
8702;SDS011;9002;42.708;23.186;2024-02-21T16:27:01;15.40;;;9.52;;
8702;SDS011;9002;42.708;23.186;2024-02-21T16:29:35;12.35;;;8.07;;
8702;SDS011;9002;42.708;23.186;2024-02-21T16:32:02;13.98;;;8.77;;
8702;SDS011;9002;42.708;23.186;2024-02-21T16:34:30;11.88;;;7.70;;
8702;SDS011;9002;42.708;23.186;2024-02-21T16:36:58;16.58;;;9.63;;
8702;SDS011;9002;42.708;23.186;2024-02-21T16:39:25;14.77;;;8.75;;
8702;SDS011;9002;42.708;23.186;2024-02-21T16:41:59;11.15;;;6.90;;
8702;SDS011;9002;42.708;23.186;2024-02-21T16:44:28;12.60;;;7.78;;
8702;SDS011;9002;42.708;23.186;2024-02-21T16:46:57;15.63;;;9.65;;
8702;SDS011;9002;42.708;23.186;2024-02-21T16:49:24;14.80;;;9.02;;
8702;SDS011;9002;42.708;23.186;2024-02-21T16:51:52;12.80;;;8.98;;
8702;SDS011;9002;42.708;23.186;2024-02-21T16:54:22;11.57;;;8.10;;
8702;SDS011;9002;42.708;23.186;2024-02-21T16:56:51;12.65;;;8.57;;
8702;SDS011;9002;42.708;23.186;2024-02-21T16:59:23;15.25;;;7.65;;
8702;SDS011;9002;42.708;23.186;2024-02-21T17:02:03;13.00;;;8.98;;
8702;SDS011;9002;42.708;23.186;2024-02-21T17:04:35;20.05;;;11.65;;
8702;SDS011;9002;42.708;23.186;2024-02-21T17:07:06;16.48;;;9.55;;
8702;SDS011;9002;42.708;23.186;2024-02-21T17:09:33;12.98;;;9.00;;
8702;SDS011;9002;42.708;23.186;2024-02-21T17:12:02;18.45;;;9.93;;
8702;SDS011;9002;42.708;23.186;2024-02-21T17:14:32;18.52;;;11.48;;
8702;SDS011;9002;42.708;23.186;2024-02-21T17:16:59;13.57;;;9.20;;
8702;SDS011;9002;42.708;23.186;2024-02-21T17:19:28;17.73;;;9.48;;
8702;SDS011;9002;42.708;23.186;2024-02-21T17:21:55;16.35;;;10.30;;
8702;SDS011;9002;42.708;23.186;2024-02-21T17:24:22;17.17;;;9.45;;
8702;SDS011;9002;42.708;23.186;2024-02-21T17:26:49;16.55;;;10.60;;
8702;SDS011;9002;42.708;23.186;2024-02-21T17:29:16;23.60;;;12.75;;
8702;SDS011;9002;42.708;23.186;2024-02-21T17:31:43;15.27;;;8.95;;
8702;SDS011;9002;42.708;23.186;2024-02-21T17:34:10;16.48;;;10.60;;
8702;SDS011;9002;42.708;23.186;2024-02-21T17:36:39;12.73;;;9.13;;
8702;SDS011;9002;42.708;23.186;2024-02-21T17:39:06;13.45;;;9.93;;